Home > Products > Valid Products > TAF

000
FTUS43 KGRR 272320
TAFBTL
TAF
KBTL 272320Z 2800/2824 28004KT P6SM SCT100
     FM281700 20008KT P6SM VCSH SCT040=



000
FTUS43 KGRR 272320
TAFJXN
TAF
KJXN 272320Z 2800/2824 28004KT P6SM SCT100
     FM281700 20008KT P6SM VCSH SCT040=



000
FTUS43 KGRR 272320
TAFLAN
TAF
KLAN 272320Z 2800/2824 28004KT P6SM SCT100
     FM281700 20008KT P6SM VCSH SCT040=



000
FTUS43 KGRR 272320
TAFLAN
TAF
KLAN 272320Z 2800/2824 28004KT P6SM SCT100
     FM281700 20008KT P6SM VCSH SCT040=



000
FTUS43 KGRR 272320
TAFMKG
TAF
KMKG 272320Z 2800/2824 23003KT P6SM SCT100
     FM281700 21009KT P6SM VCSH SCT040=



000
FTUS43 KGRR 272320
TAFGRR
TAF
KGRR 272320Z 2800/2824 26004KT P6SM SCT100
     FM281700 20008KT P6SM VCSH SCT040=



000
FTUS43 KGRR 272320
TAFGRR
TAF
KGRR 272320Z 2800/2824 26004KT P6SM SCT100
     FM281700 20008KT P6SM VCSH SCT040=



000
FTUS43 KGRR 272320
TAFBTL
TAF
KBTL 272320Z 2800/2824 28004KT P6SM SCT100
     FM281700 20008KT P6SM VCSH SCT040=



000
FTUS43 KGRR 272320
TAFMKG
TAF
KMKG 272320Z 2800/2824 23003KT P6SM SCT100
     FM281700 21009KT P6SM VCSH SCT040=



000
FTUS43 KGRR 272320
TAFJXN
TAF
KJXN 272320Z 2800/2824 28004KT P6SM SCT100
     FM281700 20008KT P6SM VCSH SCT040=



000
FTUS43 KGRR 272320
TAFAZO
TAF
KAZO 272320Z 2800/2824 28004KT P6SM SCT100
     FM281700 20008KT P6SM VCSH SCT040=



000
FTUS43 KGRR 272320
TAFAZO
TAF
KAZO 272320Z 2800/2824 28004KT P6SM SCT100
     FM281700 20008KT P6SM VCSH SCT040=



000
FTUS43 KGRR 272133 AAB
TAFBTL
TAF AMD
KBTL 272133Z 2722/2818 29015KT P6SM SCT050 SCT080
     FM280100 26003KT P6SM SKC=



000
FTUS43 KGRR 272130 AAB
TAFGRR
TAF AMD
KGRR 272130Z 2722/2818 28012KT P6SM SCT030 BKN080
     FM280000 28005KT P6SM SCT150
     FM280600 22005KT 4SM BR SKC
     FM281200 20008KT P6SM SKC=



000
FTUS43 KGRR 272130 AAB
TAFGRR
TAF AMD
KGRR 272130Z 2722/2818 28012KT P6SM SCT030 BKN080
     FM280000 28005KT P6SM SCT150
     FM280600 22005KT 4SM BR SKC
     FM281200 20008KT P6SM SKC=



000
FTUS43 KGRR 272051 AAA
TAFMKG
TAF AMD
KMKG 272051Z 2721/2818 25006KT P6SM BKN100
     FM272300 22003KT P6SM SCT100
     FM280300 20005KT P6SM SKC=



000
FTUS43 KGRR 272040 AAA
TAFAZO
TAF AMD
KAZO 272040Z 2721/2818 27014G22KT P6SM VCSH BKN050 BKN080
     FM280000 26011KT P6SM SCT150
     FM280500 21005KT 4SM BR SKC
     FM281200 20008KT P6SM SKC=



000
FTUS43 KGRR 272040 AAA
TAFAZO
TAF AMD
KAZO 272040Z 2721/2818 27014G22KT P6SM VCSH BKN050 BKN080
     FM280000 26011KT P6SM SCT150
     FM280500 21005KT 4SM BR SKC
     FM281200 20008KT P6SM SKC=



000
FTUS43 KGRR 272000 AAB
TAFJXN
TAF AMD
KJXN 272000Z 2720/2818 23010KT 6SM -SHRA BKN050
     FM272100 27012G21KT P6SM BKN050
     FM280900 21002KT 4SM BR BKN150
     FM281200 17007KT P6SM SKC=



000
FTUS43 KGRR 271928 AAA
TAFJXN
TAF AMD
KJXN 271928Z 2719/2818 24012KT 4SM -TSRA OVC035CB
     FM272000 27012G21KT P6SM BKN050
     FM280900 21002KT 4SM BR BKN150
     FM281200 17007KT P6SM SKC=



000
FTUS43 KGRR 271811 AAA
TAFBTL
TAF AMD
KBTL 271811Z 2718/2818 25012G20KT P6SM BKN050
     FM280300 17004KT P6SM SKC=



000
FTUS43 KGRR 271741
TAFGRR
TAF
KGRR 271741Z 2718/2818 25018G28KT P6SM VCSH BKN030
     FM272300 26011KT P6SM SCT150
     FM280600 21005KT 4SM BR SKC
     FM281200 20008KT P6SM SKC=



000
FTUS43 KGRR 271741
TAFBTL
TAF
KBTL 271741Z 2718/2818 26012KT P6SM VCTS BKN035CB
      TEMPO 2718/2719 2SM -TSRA OVC025CB
     FM272100 27010G20KT P6SM SCT150
     FM280900 18002KT 5SM BR SCT250
     FM281200 17007KT P6SM SKC=



000
FTUS43 KGRR 271741
TAFJXN
TAF
KJXN 271741Z 2718/2818 24015G25KT P6SM VCTS OVC035CB
      TEMPO 2718/2720 1SM -TSRA OVC025CB
     FM272100 27011KT P6SM BKN100
     FM280900 21002KT 4SM BR BKN150
     FM281200 17007KT P6SM SKC=



000
FTUS43 KGRR 271741
TAFMKG
TAF
KMKG 271741Z 2718/2818 24014G21KT P6SM VCSH BKN028
     FM272300 25011KT P6SM SCT150
     FM280300 20005KT P6SM SKC=



000
FTUS43 KGRR 271741
TAFLAN
TAF
KLAN 271741Z 2718/2818 25015G23KT P6SM VCSH BKN035
     FM272300 25011KT P6SM BKN100
     FM280900 17002KT 4SM BR BKN100
     FM281200 17007KT P6SM SKC=



000
FTUS43 KGRR 271741
TAFAZO
TAF
KAZO 271741Z 2718/2818 24014G21KT P6SM VCSH BKN050
     FM272300 26011KT P6SM SCT150
     FM280500 21005KT 4SM BR SKC
     FM281200 20008KT P6SM SKC=



000
FTUS43 KGRR 271559 AAA
TAFBTL
TAF AMD
KBTL 271559Z 2716/2812 25018G28KT P6SM VCTS BKN035CB
      TEMPO 2716/2719 3SM -TSRA OVC025CB
     FM271900 25016G26KT P6SM SCT150
     FM280900 18002KT 5SM BR SCT250=



000
FTUS43 KGRR 271559 AAA
TAFBTL
TAF AMD
KBTL 271559Z 2716/2812 25018G28KT P6SM VCTS BKN035CB
      TEMPO 2716/2719 3SM -TSRA OVC025CB
     FM271900 25016G26KT P6SM SCT150
     FM280900 18002KT 5SM BR SCT250=



000
FTUS43 KGRR 271558 AAA
TAFAZO
TAF AMD
KAZO 271558Z 2716/2812 22014G23KT P6SM VCSH BKN080
      TEMPO 2716/2719 3SM -TSRA OVC025CB
     FM272300 25011KT P6SM SCT150
     FM280600 21002KT 5SM BR SCT250=



000
FTUS43 KGRR 271527 AAB
TAFGRR
TAF AMD
KGRR 271527Z 2715/2812 24020G30KT P6SM BKN025
     FM272300 25011KT P6SM SCT150
     FM280600 20002KT 4SM BR BKN250=



000
FTUS43 KGRR 271313 AAA
TAFGRR
TAF AMD
KGRR 271313Z 2713/2812 23014G22KT P6SM BKN020
     FM271500 25015G25KT P6SM BKN035
     FM272300 25011KT P6SM SCT150
     FM280600 20002KT 4SM BR BKN250=



000
FTUS43 KGRR 271313 AAA
TAFGRR
TAF AMD
KGRR 271313Z 2713/2812 23014G22KT P6SM BKN020
     FM271500 25015G25KT P6SM BKN035
     FM272300 25011KT P6SM SCT150
     FM280600 20002KT 4SM BR BKN250=



000
FTUS43 KGRR 271135
TAFBTL
TAF
KBTL 271135Z 2712/2812 22015G20KT P6SM BKN070
     FM271400 25014G24KT P6SM BKN035
     FM271700 24015G25KT P6SM VCTS OVC035CB
     FM271900 25016G26KT P6SM SCT150
     FM280900 18002KT 5SM BR SCT250=



000
FTUS43 KGRR 271135
TAFJXN
TAF
KJXN 271135Z 2712/2812 21015KT P6SM BKN050
     FM271500 25014G24KT P6SM BKN035
     FM271800 24015G25KT 5SM -TSRA BR OVC035CB
     FM272000 27011KT P6SM SCT150
     FM280900 21002KT 4SM BR BKN250=



000
FTUS43 KGRR 271135
TAFAZO
TAF
KAZO 271135Z 2712/2812 22012G19KT P6SM BKN080
     FM271400 25015G25KT P6SM BKN035
     FM272300 25011KT P6SM SCT150
     FM280600 21002KT 5SM BR SCT250=



000
FTUS43 KGRR 271135
TAFMKG
TAF
KMKG 271135Z 2712/2812 22012G22KT P6SM VCSH BKN035
      TEMPO 2713/2716 BKN015
     FM271600 25012G20KT P6SM VCSH BKN025
     FM272300 25011KT P6SM SCT150
     FM280300 19003KT 4SM BR BKN250=



000
FTUS43 KGRR 271135
TAFGRR
TAF
KGRR 271135Z 2712/2812 23014G22KT P6SM SCT025
     FM271400 25015G25KT P6SM BKN035
     FM272300 25011KT P6SM SCT150
     FM280600 20002KT 4SM BR BKN250=



000
FTUS43 KGRR 271135
TAFLAN
TAF
KLAN 271135Z 2712/2812 20014G20KT P6SM BKN050
     FM271500 25016G27KT P6SM BKN035
     FM272300 25011KT P6SM SCT150
     FM280900 17002KT 4SM BR BKN100=



000
FTUS43 KGRR 271029 AAA
TAFJXN
TAF AMD
KJXN 271029Z 2710/2806 21015KT P6SM BKN050
     FM271500 25014G24KT P6SM BKN035
     FM272300 25011KT P6SM SCT150=



000
FTUS43 KGRR 271029 AAA
TAFLAN
TAF AMD
KLAN 271029Z 2710/2806 20015KT P6SM BKN050
     FM271500 25014G24KT P6SM BKN035
     FM272300 25011KT P6SM SCT150=



000
FTUS43 KGRR 271006 AAC
TAFGRR
TAF AMD
KGRR 271006Z 2710/2806 22011KT P6SM BKN025
     FM271400 25015G25KT P6SM BKN035
     FM272300 25011KT P6SM SCT150=



000
FTUS43 KGRR 271000 AAB
TAFMKG
TAF AMD
KMKG 271000Z 2710/2806 20011KT 4SM BR VCSH BKN005
     FM271400 25015G27KT P6SM BKN035
     FM272300 25011KT P6SM SCT150=



000
FTUS43 KGRR 271000 AAB
TAFMKG
TAF AMD
KMKG 271000Z 2710/2806 20011KT 4SM BR VCSH BKN005
     FM271400 25015G27KT P6SM BKN035
     FM272300 25011KT P6SM SCT150=



000
FTUS43 KGRR 270711 AAA
TAFMKG
TAF AMD
KMKG 270711Z 2707/2806 19015KT P6SM BKN050
      TEMPO 2707/2709 2SM RA BR OVC025
     FM271000 20011KT 4SM BR OVC070
     FM271400 25015G27KT P6SM BKN035
     FM272300 25011KT P6SM SCT150=



000
FTUS43 KGRR 270540
TAFAZO
TAF
KAZO 270540Z 2706/2806 20015KT P6SM BKN050
     FM271000 22011KT 6SM BR OVC070
     FM271400 25014G24KT P6SM BKN035
     FM272300 25011KT P6SM SCT150=



000
FTUS43 KGRR 270540
TAFMKG
TAF
KMKG 270540Z 2706/2806 19015KT P6SM BKN050
     FM271000 20011KT 4SM BR OVC070
     FM271400 25015G27KT P6SM BKN035
     FM272300 25011KT P6SM SCT150=



000
FTUS43 KGRR 270540
TAFJXN
TAF
KJXN 270540Z 2706/2806 20015KT P6SM BKN050
     FM271000 22012KT 5SM BR OVC070
     FM271500 25014G24KT P6SM BKN035
     FM272300 25011KT P6SM SCT150=



000
FTUS43 KGRR 270540
TAFBTL
TAF
KBTL 270540Z 2706/2806 20015KT P6SM BKN050
     FM271000 22011KT 6SM BR OVC070
     FM271400 25014G24KT P6SM BKN035
     FM272300 25011KT P6SM SCT150=



000
FTUS43 KGRR 270540
TAFGRR
TAF
KGRR 270540Z 2706/2806 20015KT P6SM BKN050
     FM271000 22011KT 5SM BR OVC070
     FM271400 25015G25KT P6SM BKN035
     FM272300 25011KT P6SM SCT150=



000
FTUS43 KGRR 270540
TAFLAN
TAF
KLAN 270540Z 2706/2806 20015KT P6SM BKN050
     FM271000 22012KT 5SM BR OVC070
     FM271500 25014G24KT P6SM BKN035
     FM272300 25011KT P6SM SCT150=



000
FTUS43 KGRR 262340
TAFBTL
TAF
KBTL 262340Z 2700/2724 20015KT P6SM VCSH BKN050
     FM270600 22011KT 6SM BR OVC070
     FM271400 25014G24KT P6SM BKN035=



000
FTUS43 KGRR 262340
TAFAZO
TAF
KAZO 262340Z 2700/2724 20015KT P6SM VCSH BKN050
     FM270600 22011KT 6SM BR OVC070
     FM271400 25014G24KT P6SM BKN035=



000
FTUS43 KGRR 262340
TAFGRR
TAF
KGRR 262340Z 2700/2724 20015KT P6SM VCSH BKN050
     FM270600 22011KT 5SM BR OVC070
     FM271400 25015G25KT P6SM BKN035=



000
FTUS43 KGRR 262340
TAFLAN
TAF
KLAN 262340Z 2700/2724 20015G23KT P6SM VCSH BKN050
     FM270600 22012KT 5SM BR OVC070
     FM271500 25014G24KT P6SM BKN035=



000
FTUS43 KGRR 262340
TAFGRR
TAF
KGRR 262340Z 2700/2724 20015KT P6SM VCSH BKN050
     FM270600 22011KT 5SM BR OVC070
     FM271400 25015G25KT P6SM BKN035=



000
FTUS43 KGRR 262340
TAFMKG
TAF
KMKG 262340Z 2700/2724 19015KT P6SM VCSH BKN050
     FM270600 22011KT 4SM BR OVC070
     FM271400 25015G27KT P6SM BKN035=



000
FTUS43 KGRR 262340
TAFJXN
TAF
KJXN 262340Z 2700/2724 20015G23KT P6SM VCSH BKN050
     FM270600 22012KT 5SM BR OVC070
     FM271500 25014G24KT P6SM BKN035=



000
FTUS43 KGRR 262340
TAFLAN
TAF
KLAN 262340Z 2700/2724 20015G23KT P6SM VCSH BKN050
     FM270600 22012KT 5SM BR OVC070
     FM271500 25014G24KT P6SM BKN035=



000
FTUS43 KGRR 262340
TAFMKG
TAF
KMKG 262340Z 2700/2724 19015KT P6SM VCSH BKN050
     FM270600 22011KT 4SM BR OVC070
     FM271400 25015G27KT P6SM BKN035=



000
FTUS43 KGRR 262340
TAFJXN
TAF
KJXN 262340Z 2700/2724 20015G23KT P6SM VCSH BKN050
     FM270600 22012KT 5SM BR OVC070
     FM271500 25014G24KT P6SM BKN035=



000
FTUS43 KGRR 262340
TAFAZO
TAF
KAZO 262340Z 2700/2724 20015KT P6SM VCSH BKN050
     FM270600 22011KT 6SM BR OVC070
     FM271400 25014G24KT P6SM BKN035=



000
FTUS43 KGRR 262340
TAFBTL
TAF
KBTL 262340Z 2700/2724 20015KT P6SM VCSH BKN050
     FM270600 22011KT 6SM BR OVC070
     FM271400 25014G24KT P6SM BKN035=



000
FTUS43 KGRR 262156 AAA
TAFJXN
TAF AMD
KJXN 262156Z 2622/2718 19014G25KT P6SM VCTS BKN035CB
      TEMPO 2622/2624 3SM -TSRA BR BKN025CB
     FM270000 20015G23KT 5SM BR VCSH BKN050
     FM270600 22012KT 5SM BR OVC070=



000
FTUS43 KGRR 262154 AAB
TAFBTL
TAF AMD
KBTL 262154Z 2622/2718 22012G21KT 6SM BR VCTS BKN035CB
      TEMPO 2622/2623 3SM -TSRA OVC025CB
     FM270100 22011KT 6SM BR OVC070=



000
FTUS43 KGRR 262107 AAA
TAFLAN
TAF AMD
KLAN 262107Z 2621/2718 19012G18KT P6SM VCSH BKN035
     FM262130 22014G32KT 1SM TSRA BR BKN015CB
     FM262215 20015G23KT 5SM BR VCSH BKN050
     FM270100 22012KT 6SM BR OVC070=



000
FTUS43 KGRR 262104 AAA
TAFBTL
TAF AMD
KBTL 262104Z 2621/2718 22012G21KT 2SM -TSRA BR BKN015CB
     FM262130 21012G20KT 6SM BR VCTS BKN025CB
     FM270100 22011KT 6SM BR OVC070=



000
FTUS43 KGRR 261736
TAFMKG
TAF
KMKG 261736Z 2618/2718 17012G18KT P6SM VCTS BKN035CB
      TEMPO 2618/2622 3SM -TSRA BR BKN015CB
     FM262200 19015G23KT 5SM BR VCSH BKN050
     FM270600 22011KT 4SM BR OVC070=



000
FTUS43 KGRR 261736
TAFJXN
TAF
KJXN 261736Z 2618/2718 19012G18KT P6SM VCTS BKN035CB
      TEMPO 2620/2623 2SM -TSRA BR BKN015CB
     FM262300 20015G23KT 5SM BR VCSH BKN050
     FM270600 22012KT 5SM BR OVC070=



000
FTUS43 KGRR 261736
TAFBTL
TAF
KBTL 261736Z 2618/2718 17012G18KT P6SM VCSH BKN025
      TEMPO 2619/2621 2SM -TSRA BR BKN015CB
     FM262200 20015G23KT 5SM BR VCSH BKN050
     FM270600 22011KT 6SM BR OVC070=



000
FTUS43 KGRR 261736
TAFAZO
TAF
KAZO 261736Z 2618/2718 18012G18KT P6SM VCSH BKN025
      TEMPO 2619/2621 2SM -TSRA BR BKN015CB
     FM262200 20015G23KT 5SM BR VCSH BKN050
     FM270600 22011KT 6SM BR OVC070=



000
FTUS43 KGRR 261736
TAFGRR
TAF
KGRR 261736Z 2618/2718 17014G20KT P6SM BKN025
      TEMPO 2619/2621 2SM -TSRA BR BKN015CB
     FM262200 20015G23KT 5SM BR VCSH BKN050
     FM270600 22011KT 5SM BR OVC070=



000
FTUS43 KGRR 261736
TAFLAN
TAF
KLAN 261736Z 2618/2718 19012G18KT P6SM VCSH BKN035
      TEMPO 2620/2622 2SM -TSRA BR BKN015CB
     FM262200 20015G23KT 5SM BR VCSH BKN050
     FM270600 22012KT 5SM BR OVC070=



000
FTUS43 KGRR 261659 AAB
TAFMKG
TAF AMD
KMKG 261659Z 2617/2712 16012KT P6SM SCT025
     FM261900 19013G20KT P6SM VCTS BKN035CB
     FM262000 21015G25KT 2SM TSRA BR BKN035CB
     FM262200 19018KT 5SM BR VCSH BKN050
     FM270600 22011KT 4SM BR OVC015=



000
FTUS43 KGRR 261659 AAB
TAFMKG
TAF AMD
KMKG 261659Z 2617/2712 16012KT P6SM SCT025
     FM261900 19013G20KT P6SM VCTS BKN035CB
     FM262000 21015G25KT 2SM TSRA BR BKN035CB
     FM262200 19018KT 5SM BR VCSH BKN050
     FM270600 22011KT 4SM BR OVC015=



000
FTUS43 KGRR 261628 AAB
TAFBTL
TAF AMD
KBTL 261628Z 2616/2712 19010KT P6SM BKN025
     FM261800 19013KT P6SM VCTS BKN035CB
     FM261900 21015G25KT 4SM TSRA BR BKN035CB
     FM262200 19012KT 5SM BR VCSH BKN050
     FM270600 22011KT 4SM BR OVC015=



000
FTUS43 KGRR 261626 AAB
TAFGRR
TAF AMD
KGRR 261626Z 2616/2712 19012KT P6SM BKN025
     FM261800 20012KT P6SM VCTS BKN035CB
     FM262000 21015G25KT 4SM TSRA BR BKN035CB
     FM262300 19012KT 5SM BR VCSH BKN050
     FM270600 22011KT 4SM BR OVC015=



000
FTUS43 KGRR 261626 AAB
TAFGRR
TAF AMD
KGRR 261626Z 2616/2712 19012KT P6SM BKN025
     FM261800 20012KT P6SM VCTS BKN035CB
     FM262000 21015G25KT 4SM TSRA BR BKN035CB
     FM262300 19012KT 5SM BR VCSH BKN050
     FM270600 22011KT 4SM BR OVC015=



000
FTUS43 KGRR 261404 AAA
TAFLAN
TAF AMD
KLAN 261404Z 2614/2712 19012KT P6SM BKN015
     FM261500 20012KT P6SM BKN015
     FM261800 19013KT P6SM VCTS BKN035CB
     FM262100 21015KT 4SM TSRA BR BKN035CB
     FM270000 20015KT 5SM BR VCSH BKN050
     FM270600 22011KT 4SM BR OVC015=



000
FTUS43 KGRR 261402 AAA
TAFAZO
TAF AMD
KAZO 261402Z 2614/2712 20010KT P6SM BKN015
     FM261800 19013KT P6SM VCTS BKN035CB
     FM261900 21015G25KT 4SM TSRA BR BKN035CB
     FM262200 19012KT 5SM BR VCSH BKN050
     FM270600 22011KT 4SM BR OVC015=



000
FTUS43 KGRR 261402 AAA
TAFAZO
TAF AMD
KAZO 261402Z 2614/2712 20010KT P6SM BKN015
     FM261800 19013KT P6SM VCTS BKN035CB
     FM261900 21015G25KT 4SM TSRA BR BKN035CB
     FM262200 19012KT 5SM BR VCSH BKN050
     FM270600 22011KT 4SM BR OVC015=



000
FTUS43 KGRR 261320 AAA
TAFBTL
TAF AMD
KBTL 261320Z 2613/2712 20012KT P6SM BKN015
     FM261800 19013KT P6SM VCTS BKN035CB
     FM261900 21015G25KT 4SM TSRA BR BKN035CB
     FM262200 19012KT 5SM BR VCSH BKN050
     FM270600 22011KT 4SM BR OVC015=



000
FTUS43 KGRR 261320 AAA
TAFBTL
TAF AMD
KBTL 261320Z 2613/2712 20012KT P6SM BKN015
     FM261800 19013KT P6SM VCTS BKN035CB
     FM261900 21015G25KT 4SM TSRA BR BKN035CB
     FM262200 19012KT 5SM BR VCSH BKN050
     FM270600 22011KT 4SM BR OVC015=



000
FTUS43 KGRR 261255 AAA
TAFMKG
TAF AMD
KMKG 261255Z 2613/2712 19015KT 6SM BR OVC008
     FM261500 17012KT P6SM OVC015
     FM261700 19013G20KT P6SM VCTS BKN035CB
     FM262100 21015G25KT 2SM TSRA BR BKN035CB
     FM270000 19018KT 5SM BR VCSH BKN050
     FM270600 22011KT 4SM BR OVC015=



000
FTUS43 KGRR 261255 AAA
TAFMKG
TAF AMD
KMKG 261255Z 2613/2712 19015KT 6SM BR OVC008
     FM261500 17012KT P6SM OVC015
     FM261700 19013G20KT P6SM VCTS BKN035CB
     FM262100 21015G25KT 2SM TSRA BR BKN035CB
     FM270000 19018KT 5SM BR VCSH BKN050
     FM270600 22011KT 4SM BR OVC015=



000
FTUS43 KGRR 261209 AAA
TAFGRR
TAF AMD
KGRR 261209Z 2612/2712 19011KT P6SM OVC008
     FM261430 20012KT P6SM BKN015
     FM261700 19013KT P6SM VCTS BKN035CB
     FM262000 21015G25KT 4SM TSRA BR BKN035CB
     FM262300 19012KT 5SM BR VCSH BKN050
     FM270600 22011KT 4SM BR OVC015=



000
FTUS43 KGRR 261209 AAA
TAFGRR
TAF AMD
KGRR 261209Z 2612/2712 19011KT P6SM OVC008
     FM261430 20012KT P6SM BKN015
     FM261700 19013KT P6SM VCTS BKN035CB
     FM262000 21015G25KT 4SM TSRA BR BKN035CB
     FM262300 19012KT 5SM BR VCSH BKN050
     FM270600 22011KT 4SM BR OVC015=



000
FTUS43 KGRR 261141
TAFGRR
TAF
KGRR 261141Z 2612/2712 19011KT 5SM BR SCT009 BKN015
     FM261300 19010KT P6SM BKN009
     FM261430 20012KT P6SM BKN015
     FM261700 19013KT P6SM VCTS BKN035CB
     FM262000 21015G25KT 4SM TSRA BR BKN035CB
     FM262300 19012KT 5SM BR VCSH BKN050
     FM270600 22011KT 4SM BR OVC015=



000
FTUS43 KGRR 261141
TAFBTL
TAF
KBTL 261141Z 2612/2712 19010KT 5SM BR BKN009
     FM261500 20012KT P6SM BKN015
     FM261800 19013KT P6SM VCTS BKN035CB
     FM261900 21015G25KT 4SM TSRA BR BKN035CB
     FM262200 19012KT 5SM BR VCSH BKN050
     FM270600 22011KT 4SM BR OVC015=



000
FTUS43 KGRR 261141
TAFJXN
TAF
KJXN 261141Z 2612/2712 21010KT P6SM BKN009
     FM261400 20012KT P6SM BKN015
     FM261600 19013KT P6SM VCTS BKN035CB
     FM262000 21015KT 4SM TSRA BR BKN035CB
     FM262300 20015KT 5SM BR VCSH BKN050
     FM270600 22011KT 4SM BR OVC015=



000
FTUS43 KGRR 261141
TAFLAN
TAF
KLAN 261141Z 2612/2712 19010KT 5SM BR BKN015
     FM261330 19010KT P6SM BKN009
     FM261500 20012KT P6SM BKN015
     FM261800 19013KT P6SM VCTS BKN035CB
     FM262100 21015KT 4SM TSRA BR BKN035CB
     FM270000 20015KT 5SM BR VCSH BKN050
     FM270600 22011KT 4SM BR OVC015=



000
FTUS43 KGRR 261141
TAFMKG
TAF
KMKG 261141Z 2612/2712 20010KT P6SM SCT200
     FM261230 19013G20KT 6SM BR BKN015
     FM261700 19013G20KT P6SM VCTS BKN035CB
     FM262100 21015G25KT 2SM TSRA BR BKN035CB
     FM270000 19018KT 5SM BR VCSH BKN050
     FM270600 22011KT 4SM BR OVC015=



000
FTUS43 KGRR 261141
TAFAZO
TAF
KAZO 261141Z 2612/2712 19010KT 5SM BR BKN009
     FM261500 20012KT P6SM BKN015
     FM261800 19013KT P6SM VCTS BKN035CB
     FM261900 21015G25KT 4SM TSRA BR BKN035CB
     FM262200 19012KT 5SM BR VCSH BKN050
     FM270600 22011KT 4SM BR OVC015=



000
FTUS43 KGRR 261141
TAFGRR
TAF
KGRR 261141Z 2612/2712 19011KT 5SM BR SCT009 BKN015
     FM261300 19010KT P6SM BKN009
     FM261430 20012KT P6SM BKN015
     FM261700 19013KT P6SM VCTS BKN035CB
     FM262000 21015G25KT 4SM TSRA BR BKN035CB
     FM262300 19012KT 5SM BR VCSH BKN050
     FM270600 22011KT 4SM BR OVC015=



000
FTUS43 KGRR 261141
TAFBTL
TAF
KBTL 261141Z 2612/2712 19010KT 5SM BR BKN009
     FM261500 20012KT P6SM BKN015
     FM261800 19013KT P6SM VCTS BKN035CB
     FM261900 21015G25KT 4SM TSRA BR BKN035CB
     FM262200 19012KT 5SM BR VCSH BKN050
     FM270600 22011KT 4SM BR OVC015=



000
FTUS43 KGRR 261141
TAFLAN
TAF
KLAN 261141Z 2612/2712 19010KT 5SM BR BKN015
     FM261330 19010KT P6SM BKN009
     FM261500 20012KT P6SM BKN015
     FM261800 19013KT P6SM VCTS BKN035CB
     FM262100 21015KT 4SM TSRA BR BKN035CB
     FM270000 20015KT 5SM BR VCSH BKN050
     FM270600 22011KT 4SM BR OVC015=



000
FTUS43 KGRR 261141
TAFJXN
TAF
KJXN 261141Z 2612/2712 21010KT P6SM BKN009
     FM261400 20012KT P6SM BKN015
     FM261600 19013KT P6SM VCTS BKN035CB
     FM262000 21015KT 4SM TSRA BR BKN035CB
     FM262300 20015KT 5SM BR VCSH BKN050
     FM270600 22011KT 4SM BR OVC015=



000
FTUS43 KGRR 261141
TAFMKG
TAF
KMKG 261141Z 2612/2712 20010KT P6SM SCT200
     FM261230 19013G20KT 6SM BR BKN015
     FM261700 19013G20KT P6SM VCTS BKN035CB
     FM262100 21015G25KT 2SM TSRA BR BKN035CB
     FM270000 19018KT 5SM BR VCSH BKN050
     FM270600 22011KT 4SM BR OVC015=



000
FTUS43 KGRR 261141
TAFAZO
TAF
KAZO 261141Z 2612/2712 19010KT 5SM BR BKN009
     FM261500 20012KT P6SM BKN015
     FM261800 19013KT P6SM VCTS BKN035CB
     FM261900 21015G25KT 4SM TSRA BR BKN035CB
     FM262200 19012KT 5SM BR VCSH BKN050
     FM270600 22011KT 4SM BR OVC015=



000
FTUS43 KGRR 261048 AAB
TAFJXN
TAF AMD
KJXN 261048Z 2611/2706 19010KT P6SM BKN009
     FM261600 19013KT P6SM VCTS BKN035CB
     FM262200 21015KT 3SM -RA BR VCTS BKN035CB
     FM270100 20015KT 5SM BR VCSH BKN050=



000
FTUS43 KGRR 261048 AAB
TAFJXN
TAF AMD
KJXN 261048Z 2611/2706 19010KT P6SM BKN009
     FM261600 19013KT P6SM VCTS BKN035CB
     FM262200 21015KT 3SM -RA BR VCTS BKN035CB
     FM270100 20015KT 5SM BR VCSH BKN050=



000
FTUS43 KGRR 260901 AAA
TAFBTL
TAF AMD
KBTL 260901Z 2609/2706 20010KT P6SM BKN013
     FM261100 19012KT 5SM BR SCT008 BKN010
     FM261500 19013KT P6SM VCTS BKN035CB
     FM262000 21015G25KT 2SM TSRA BR BKN035CB
     FM262300 19012KT 5SM BR VCSH BKN050=



000
FTUS43 KGRR 260901 AAA
TAFMKG
TAF AMD
KMKG 260901Z 2609/2706 20013G20KT P6SM SCT200
     FM261200 19013G20KT 5SM BR BKN015
     FM261700 19013G20KT P6SM VCTS BKN035CB
     FM262100 21015G25KT 2SM TSRA BR BKN035CB
     FM270000 19018KT 5SM BR VCSH BKN050=



000
FTUS43 KGRR 260901 AAA
TAFGRR
TAF AMD
KGRR 260901Z 2609/2706 20010KT P6SM SCT015 SCT200
     FM261100 19012KT 5SM BR SCT009 BKN013
     FM261500 19013KT P6SM VCTS BKN035CB
     FM262100 21015G25KT 2SM TSRA BR BKN035CB
     FM270000 19012KT 5SM BR VCSH BKN050=



000
FTUS43 KGRR 260901 AAA
TAFLAN
TAF AMD
KLAN 260901Z 2609/2706 20010KT P6SM SCT200
     FM261200 19012KT 5SM BR BKN015
     FM261600 19013KT P6SM VCTS BKN035CB
     FM262200 21015KT 2SM -RA BR VCTS BKN035CB
     FM270100 20015KT 5SM BR VCSH BKN050=



000
FTUS43 KGRR 260901 AAA
TAFAZO
TAF AMD
KAZO 260901Z 2609/2706 20010KT P6SM BKN013
     FM261100 19012KT 5SM BR SCT008 BKN010
     FM261500 19013KT P6SM VCTS BKN035CB
     FM262000 21015G25KT 2SM TSRA BR BKN035CB
     FM262300 19012KT 5SM BR VCSH BKN050=



000
FTUS43 KGRR 260901 AAA
TAFJXN
TAF AMD
KJXN 260901Z 2609/2706 20010KT P6SM SCT015
     FM261000 19012KT 5SM BR SCT008 BKN011
     FM261600 19013KT P6SM VCTS BKN035CB
     FM262200 21015KT 3SM -RA BR VCTS BKN035CB
     FM270100 20015KT 5SM BR VCSH BKN050=



000
FTUS43 KGRR 260534
TAFBTL
TAF
KBTL 260534Z 2606/2706 20010KT P6SM SCT200
     FM261200 19012KT 5SM BR BKN015
     FM261500 19013KT P6SM VCTS BKN035CB
     FM262000 21015G25KT 2SM TSRA BR BKN035CB
     FM262300 19012KT 5SM BR VCSH BKN050=



000
FTUS43 KGRR 260534
TAFGRR
TAF
KGRR 260534Z 2606/2706 20010KT P6SM SCT200
     FM261200 19012KT 5SM BR BKN015
     FM261500 19013KT P6SM VCTS BKN035CB
     FM262100 21015G25KT 2SM TSRA BR BKN035CB
     FM270000 19012KT 5SM BR VCSH BKN050=



000
FTUS43 KGRR 260534
TAFAZO
TAF
KAZO 260534Z 2606/2706 20010KT P6SM SCT200
     FM261200 19012KT 5SM BR BKN015
     FM261500 19013KT P6SM VCTS BKN035CB
     FM262000 21015G25KT 2SM TSRA BR BKN035CB
     FM262300 19012KT 5SM BR VCSH BKN050=



000
FTUS43 KGRR 260534
TAFMKG
TAF
KMKG 260534Z 2606/2706 20011KT P6SM SCT200
     FM261200 19013KT 5SM BR BKN015
     FM261700 19013KT P6SM VCTS BKN035CB
     FM262100 21015G25KT 2SM TSRA BR BKN035CB
     FM270000 19018KT 5SM BR VCSH BKN050=



000
FTUS43 KGRR 260534
TAFLAN
TAF
KLAN 260534Z 2606/2706 20010KT P6SM SCT200
     FM261400 19012KT 5SM BR BKN015
     FM261600 19013KT P6SM VCTS BKN035CB
     FM262200 21015KT 2SM -RA BR VCTS BKN035CB
     FM270100 20015KT 5SM BR VCSH BKN050=



000
FTUS43 KGRR 260534
TAFJXN
TAF
KJXN 260534Z 2606/2706 20010KT P6SM SCT200
     FM261400 19012KT 5SM BR BKN015
     FM261600 19013KT P6SM VCTS BKN035CB
     FM262200 21015KT 3SM -RA BR VCTS BKN035CB
     FM270100 20015KT 5SM BR VCSH BKN050=



000
FTUS43 KGRR 260534
TAFBTL
TAF
KBTL 260534Z 2606/2706 20010KT P6SM SCT200
     FM261200 19012KT 5SM BR BKN015
     FM261500 19013KT P6SM VCTS BKN035CB
     FM262000 21015G25KT 2SM TSRA BR BKN035CB
     FM262300 19012KT 5SM BR VCSH BKN050=



000
FTUS43 KGRR 260534
TAFMKG
TAF
KMKG 260534Z 2606/2706 20011KT P6SM SCT200
     FM261200 19013KT 5SM BR BKN015
     FM261700 19013KT P6SM VCTS BKN035CB
     FM262100 21015G25KT 2SM TSRA BR BKN035CB
     FM270000 19018KT 5SM BR VCSH BKN050=



000
FTUS43 KGRR 260534
TAFLAN
TAF
KLAN 260534Z 2606/2706 20010KT P6SM SCT200
     FM261400 19012KT 5SM BR BKN015
     FM261600 19013KT P6SM VCTS BKN035CB
     FM262200 21015KT 2SM -RA BR VCTS BKN035CB
     FM270100 20015KT 5SM BR VCSH BKN050=



000
FTUS43 KGRR 260534
TAFGRR
TAF
KGRR 260534Z 2606/2706 20010KT P6SM SCT200
     FM261200 19012KT 5SM BR BKN015
     FM261500 19013KT P6SM VCTS BKN035CB
     FM262100 21015G25KT 2SM TSRA BR BKN035CB
     FM270000 19012KT 5SM BR VCSH BKN050=



000
FTUS43 KGRR 260534
TAFAZO
TAF
KAZO 260534Z 2606/2706 20010KT P6SM SCT200
     FM261200 19012KT 5SM BR BKN015
     FM261500 19013KT P6SM VCTS BKN035CB
     FM262000 21015G25KT 2SM TSRA BR BKN035CB
     FM262300 19012KT 5SM BR VCSH BKN050=



000
FTUS43 KGRR 252352
TAFJXN
TAF
KJXN 252352Z 2600/2624 24012G22KT P6SM BKN140
     FM260200 20008KT P6SM BKN200
     FM261100 19009KT 5SM BR BKN015
     FM261600 18008KT P6SM BKN035
     FM262100 20010KT P6SM VCTS BKN040CB=



000
FTUS43 KGRR 252352
TAFLAN
TAF
KLAN 252352Z 2600/2624 24012KT P6SM BKN140
     FM260400 20008KT P6SM BKN200
     FM261100 19009KT 5SM BR BKN015
     FM261600 18008KT P6SM BKN035
     FM262100 20010KT P6SM VCTS BKN040CB=



000
FTUS43 KGRR 252352
TAFGRR
TAF
KGRR 252352Z 2600/2624 23012KT P6SM BKN140
     FM260400 20009KT P6SM BKN200
     FM261100 19009KT 5SM BR BKN015
     FM261600 20010KT P6SM BKN035
     FM262100 20009KT P6SM VCTS BKN040CB=



000
FTUS43 KGRR 252352
TAFMKG
TAF
KMKG 252352Z 2600/2624 20012KT P6SM BKN140
     FM260800 19011KT 6SM BR SCT015 BKN200
     FM261100 19011KT 5SM BR BKN015
     FM261700 19010KT P6SM BKN035
     FM262100 18009KT P6SM VCTS BKN040CB=



000
FTUS43 KGRR 252352
TAFAZO
TAF
KAZO 252352Z 2600/2624 23011KT P6SM BKN140
     FM260400 20008KT P6SM BKN200
     FM261100 19009KT 5SM BR BKN015
     FM261600 18008KT P6SM BKN035
     FM262100 20009KT P6SM VCTS BKN040CB=



000
FTUS43 KGRR 252352
TAFBTL
TAF
KBTL 252352Z 2600/2624 24012KT P6SM BKN140
     FM260400 20008KT P6SM BKN200
     FM261100 19009KT 5SM BR BKN015
     FM261600 18008KT P6SM BKN035
     FM262100 20010KT P6SM VCTS BKN040CB=



000
FTUS43 KGRR 252113 AAB
TAFLAN
TAF AMD
KLAN 252113Z 2521/2618 23015G26KT 4SM -SHRA OVC030
     FM252200 22020G30KT P6SM VCSH SCT045
     FM260000 20010KT P6SM SCT040
     FM261100 20010KT P6SM OVC015=



000
FTUS43 KGRR 251952 AAB
TAFAZO
TAF AMD
KAZO 251952Z 2520/2618 22015G25KT P6SM VCSH SCT025 BKN050
      TEMPO 2520/2521 3SM SHRA BKN030
     FM260000 20010KT P6SM SCT040 SCT250
     FM260900 20010KT P6SM OVC015=



000
FTUS43 KGRR 251952 AAB
TAFBTL
TAF AMD
KBTL 251952Z 2520/2618 22015G30KT P6SM VCSH SCT035 BKN050
      TEMPO 2520/2521 3SM SHRA BKN030
     FM260000 20010KT P6SM SCT040 SCT250
     FM260900 20010KT P6SM OVC015=



000
FTUS43 KGRR 251925 AAA
TAFLAN
TAF AMD
KLAN 251925Z 2519/2618 22020G30KT P6SM VCSH SCT045
      TEMPO 2519/2521 3SM SHRA BKN030
     FM260000 20010KT P6SM SCT040
     FM261100 20010KT P6SM OVC015=



000
FTUS43 KGRR 251814 AAA
TAFBTL
TAF AMD
KBTL 251814Z 2518/2618 22015G30KT P6SM VCSH SCT025 BKN050
      TEMPO 2519/2520 3SM SHRA BKN030
     FM260000 20010KT P6SM SCT040 SCT250
     FM260900 20010KT P6SM OVC015=



000
FTUS43 KGRR 251812 AAA
TAFAZO
TAF AMD
KAZO 251812Z 2518/2618 22015G30KT P6SM VCSH SCT025 BKN050
      TEMPO 2518/2519 3SM SHRA BKN030
     FM260000 20010KT P6SM SCT040 SCT250
     FM260900 20010KT P6SM OVC015=



000
FTUS43 KGRR 251801 AAA
TAFMKG
TAF AMD
KMKG 251801Z 2518/2618 23015G30KT 6SM -SHRA BKN035
     FM252100 23015G25KT P6SM SCT035 BKN050
     FM260000 22012KT P6SM FEW015 SCT040
     FM260900 19010KT P6SM OVC012=



000
FTUS43 KGRR 251728
TAFGRR
TAF
KGRR 251728Z 2518/2618 21015G26KT 6SM -SHRA SCT025 BKN040
     FM252100 23012G25KT P6SM BKN040
     FM260000 21010KT P6SM SCT040
     FM260900 20010KT P6SM OVC015=



000
FTUS43 KGRR 251728
TAFMKG
TAF
KMKG 251728Z 2518/2618 20015G30KT 6SM -SHRA BKN035
     FM252100 22015G25KT P6SM SCT035 BKN050
     FM260000 22012KT P6SM FEW015 SCT040
     FM260900 19010KT P6SM OVC012=



000
FTUS43 KGRR 251728
TAFJXN
TAF
KJXN 251728Z 2518/2618 22020G30KT P6SM VCSH BKN045
     FM260000 20010KT P6SM SCT040
     FM261100 20010KT P6SM OVC015=



000
FTUS43 KGRR 251728
TAFLAN
TAF
KLAN 251728Z 2518/2618 22020G30KT P6SM VCSH BKN045
     FM260000 20010KT P6SM SCT040
     FM261100 20010KT P6SM OVC015=



000
FTUS43 KGRR 251728
TAFAZO
TAF
KAZO 251728Z 2518/2618 22015G30KT P6SM VCSH SCT025 BKN050
     FM260000 20010KT P6SM SCT040 SCT250
     FM260900 20010KT P6SM OVC015=



000
FTUS43 KGRR 251728
TAFBTL
TAF
KBTL 251728Z 2518/2618 22015G30KT P6SM VCSH SCT025 BKN050
     FM260000 20010KT P6SM SCT040 SCT250
     FM260900 20010KT P6SM OVC015=



000
FTUS43 KGRR 251536 AAB
TAFMKG
TAF AMD
KMKG 251536Z 2516/2612 21015G30KT P6SM VCSH SCT025 BKN050
     FM260000 22012KT P6SM FEW015 SCT040
     FM260900 19010KT P6SM OVC015=



000
FTUS43 KGRR 251536 AAB
TAFAZO
TAF AMD
KAZO 251536Z 2516/2612 22015G30KT P6SM VCSH SCT025 BKN050
     FM260000 20010KT P6SM SCT040 SCT250
     FM260900 20010KT P6SM OVC015=



000
FTUS43 KGRR 251536 AAB
TAFBTL
TAF AMD
KBTL 251536Z 2516/2612 22015G30KT P6SM VCSH SCT025 BKN050
     FM260000 20010KT P6SM SCT040 SCT250
     FM260900 20010KT P6SM OVC015=



000
FTUS43 KGRR 251536 AAB
TAFJXN
TAF AMD
KJXN 251536Z 2516/2612 20012G25KT P6SM VCSH BKN035
     FM251800 22020G30KT P6SM VCTS BKN045CB
     FM260000 20010KT P6SM SCT040
     FM261100 20010KT P6SM OVC015=



000
FTUS43 KGRR 251536 AAB
TAFGRR
TAF AMD
KGRR 251536Z 2516/2612 22015G26KT P6SM VCSH SCT025 BKN050
     FM260000 21010KT P6SM SCT040
     FM260900 20010KT P6SM OVC015=



000
FTUS43 KGRR 251536 AAB
TAFLAN
TAF AMD
KLAN 251536Z 2516/2612 20012G25KT P6SM VCSH BKN035
     FM251800 22020G30KT P6SM VCTS BKN045CB
     FM260000 20010KT P6SM SCT040
     FM261100 20010KT P6SM OVC015=



000
FTUS43 KGRR 251431 AAA
TAFBTL
TAF AMD
KBTL 251431Z 2515/2612 20012G21KT P6SM -SHRA BKN025
     FM251700 22017G26KT P6SM VCSH BKN035
     FM260000 20010KT P6SM SCT040 SCT250
     FM260900 20010KT P6SM OVC015=



000
FTUS43 KGRR 251431 AAA
TAFAZO
TAF AMD
KAZO 251431Z 2515/2612 20012G21KT P6SM -SHRA BKN025
     FM251700 22017G26KT P6SM BKN035
     FM260000 20010KT P6SM SCT040 SCT250
     FM260900 20010KT P6SM OVC015=



000
FTUS43 KGRR 251431 AAA
TAFGRR
TAF AMD
KGRR 251431Z 2515/2612 20015G26KT P6SM VCSH BKN025
     FM251800 23015G26KT P6SM BKN035
     FM260000 21010KT P6SM SCT040
     FM260900 20010KT P6SM OVC015=



000
FTUS43 KGRR 251431 AAA
TAFMKG
TAF AMD
KMKG 251431Z 2515/2612 19015G30KT P6SM VCSH BKN025
     FM251800 22015G25KT P6SM BKN030
     FM260000 22012KT P6SM FEW015 SCT040
     FM260900 19010KT P6SM OVC015=



000
FTUS43 KGRR 251431 AAA
TAFLAN
TAF AMD
KLAN 251431Z 2515/2612 20012G21KT P6SM -SHRA BKN030
     FM251800 22020G30KT P6SM VCTS BKN035CB
     FM260000 20010KT P6SM SCT040 SCT250=



000
FTUS43 KGRR 251431 AAA
TAFJXN
TAF AMD
KJXN 251431Z 2515/2612 20012G21KT P6SM -SHRA BKN030
     FM251800 22020G30KT P6SM VCTS BKN035CB
     FM260000 20010KT P6SM SCT040 SCT250=



000
FTUS43 KGRR 251120
TAFLAN
TAF
KLAN 251120Z 2512/2612 18012KT P6SM VCSH BKN100
     FM251300 20012G21KT P6SM -SHRA BKN035
     FM251800 22020G30KT P6SM VCTS BKN030CB
     FM260000 20011KT P6SM SCT040 SCT250=



000
FTUS43 KGRR 251120
TAFAZO
TAF
KAZO 251120Z 2512/2612 19010G16KT P6SM -SHRA BKN050
     FM251330 20012G21KT P6SM -SHRA BKN035
     FM251700 22017G26KT P6SM BKN035
     FM260000 20011KT P6SM SCT040 SCT250
     FM260900 20009KT P6SM OVC015=



000
FTUS43 KGRR 251120
TAFGRR
TAF
KGRR 251120Z 2512/2612 18010G16KT P6SM -SHRA BKN050
     FM251330 20014G22KT P6SM -SHRA BKN035
     FM251700 22017G26KT P6SM BKN035
     FM260000 20011KT P6SM SCT040 SCT250
     FM260900 20009KT P6SM OVC015=



000
FTUS43 KGRR 251120
TAFJXN
TAF
KJXN 251120Z 2512/2612 18012KT P6SM -SHRA BKN050
     FM251300 20012G21KT P6SM -SHRA BKN035
     FM251800 22020G30KT P6SM VCTS BKN030CB
     FM260000 20011KT P6SM SCT040 SCT250=



000
FTUS43 KGRR 251120
TAFBTL
TAF
KBTL 251120Z 2512/2612 19010G16KT P6SM -SHRA BKN050
     FM251330 20012G21KT P6SM -SHRA BKN035
     FM251700 22017G26KT P6SM VCTS BKN035CB
     FM260000 20011KT P6SM SCT040 SCT250
     FM260900 20009KT P6SM OVC015=



000
FTUS43 KGRR 251120
TAFMKG
TAF
KMKG 251120Z 2512/2612 19014G22KT P6SM -SHRA BKN035
     FM251700 20016G26KT P6SM BKN035
     FM260000 20012KT P6SM SCT040 SCT250
     FM260900 20009KT P6SM OVC015=



000
FTUS43 KGRR 250915 AAA
TAFMKG
TAF AMD
KMKG 250915Z 2509/2606 17012G21KT P6SM VCSH OVC060
     FM251200 17014G23KT 5SM -SHRA BR BKN015
     FM251700 20020G30KT P6SM BKN030
     FM260000 20012KT P6SM SCT040 SCT250=



000
FTUS43 KGRR 250526
TAFBTL
TAF
KBTL 250526Z 2506/2606 18011KT P6SM SCT090
     FM251200 20015G25KT P6SM -SHRA BKN025
     FM251700 22020G30KT P6SM VCTS BKN030CB
     FM260000 20011KT P6SM SCT040 SCT250=



000
FTUS43 KGRR 250526
TAFJXN
TAF
KJXN 250526Z 2506/2606 18009KT P6SM SCT090
     FM251300 20015G25KT P6SM -SHRA BKN025
     FM251800 22020G30KT P6SM VCTS BKN030CB
     FM260000 20011KT P6SM SCT040 SCT250=



000
FTUS43 KGRR 250526
TAFMKG
TAF
KMKG 250526Z 2506/2606 17010KT P6SM VCSH OVC060
     FM251200 17014G23KT 5SM -SHRA BR BKN015
     FM251700 20020G30KT P6SM BKN030
     FM260000 20012KT P6SM SCT040 SCT250=



000
FTUS43 KGRR 250526
TAFGRR
TAF
KGRR 250526Z 2506/2606 17010KT P6SM SCT070
     FM251200 20015G25KT 6SM -SHRA BR BKN015
     FM251700 22020G30KT P6SM BKN030
     FM260000 20011KT P6SM SCT040 SCT250=



000
FTUS43 KGRR 250526
TAFAZO
TAF
KAZO 250526Z 2506/2606 18010KT P6SM SCT090
     FM251200 20015G25KT P6SM -SHRA BKN025
     FM251700 22020G30KT P6SM BKN030
     FM260000 20011KT P6SM SCT040 SCT250=



000
FTUS43 KGRR 250526
TAFLAN
TAF
KLAN 250526Z 2506/2606 18010KT P6SM SCT090
     FM251300 20015G25KT P6SM -SHRA BKN025
     FM251800 22020G30KT P6SM VCTS BKN030CB
     FM260000 20011KT P6SM SCT040 SCT250=



000
FTUS43 KGRR 250526
TAFBTL
TAF
KBTL 250526Z 2506/2606 18011KT P6SM SCT090
     FM251200 20015G25KT P6SM -SHRA BKN025
     FM251700 22020G30KT P6SM VCTS BKN030CB
     FM260000 20011KT P6SM SCT040 SCT250=



000
FTUS43 KGRR 250526
TAFJXN
TAF
KJXN 250526Z 2506/2606 18009KT P6SM SCT090
     FM251300 20015G25KT P6SM -SHRA BKN025
     FM251800 22020G30KT P6SM VCTS BKN030CB
     FM260000 20011KT P6SM SCT040 SCT250=



000
FTUS43 KGRR 250526
TAFGRR
TAF
KGRR 250526Z 2506/2606 17010KT P6SM SCT070
     FM251200 20015G25KT 6SM -SHRA BR BKN015
     FM251700 22020G30KT P6SM BKN030
     FM260000 20011KT P6SM SCT040 SCT250=



000
FTUS43 KGRR 250526
TAFMKG
TAF
KMKG 250526Z 2506/2606 17010KT P6SM VCSH OVC060
     FM251200 17014G23KT 5SM -SHRA BR BKN015
     FM251700 20020G30KT P6SM BKN030
     FM260000 20012KT P6SM SCT040 SCT250=



000
FTUS43 KGRR 250526
TAFLAN
TAF
KLAN 250526Z 2506/2606 18010KT P6SM SCT090
     FM251300 20015G25KT P6SM -SHRA BKN025
     FM251800 22020G30KT P6SM VCTS BKN030CB
     FM260000 20011KT P6SM SCT040 SCT250=



000
FTUS43 KGRR 250526
TAFAZO
TAF
KAZO 250526Z 2506/2606 18010KT P6SM SCT090
     FM251200 20015G25KT P6SM -SHRA BKN025
     FM251700 22020G30KT P6SM BKN030
     FM260000 20011KT P6SM SCT040 SCT250=



    US Dept of Commerce
    National Oceanic and Atmospheric Administration
    National Weather Service
    1325 East West Highway
    Silver Spring, MD 20910
    Page Author: NWS Internet Services Team
Disclaimer
Information Quality
Credits
Glossary
Privacy Policy
Freedom of Information Act (FOIA)
About Us
Career Opportunities